HOURLY OBS INDEX

088

Central - north

EILDON FIRE TOWER

Site: 088164
Alt: 637.0m
57km NNE of HEALESVILLE


  Time     Wind        Temp  DP   Baro     Rain since   Rain past  Vis(m), Cloud(base in m), Weather
  local        km/h                         9am  last   hr   10m    
Fri 23:00    W 28/ 33   1.9  1.5  ------    5.2   0.0   0.0   0.0   ----- 
Fri 23:30    W 24/ 33   2.0  1.4  ------    5.2   0.0   0.0   0.0   ----- 
Sat 00:00    W 17/ 22   1.8  1.2  ------    5.2   0.0   0.0   0.0   ----- 
Sat 00:30    W 19/ 24   1.7  1.1  ------    5.2   0.0   0.0   0.0   ----- 
Sat 01:00    W 19/ 28   1.6  0.7  ------    5.2   0.0   0.0   0.0   ----- 
Sat 01:30    W 26/ 32   1.7  0.5  ------    5.2   0.0   0.0   0.0   ----- 
Sat 02:00    W 22/ 30   1.9  0.4  ------    5.2   0.0   0.0   0.0   ----- 
Sat 02:30    W 15/ 20   1.4  0.2  ------    5.2   0.0   0.0   0.0   ----- 
Sat 03:00    W 19/ 28   1.3  0.0  ------    5.2   0.0   0.0   0.0   ----- 
Sat 03:30    W 20/ 30   1.2  0.0  ------    5.2   0.0   0.0   0.0   ----- 
Sat 04:00    W 15/ 20   1.3  0.0  ------    5.2   0.0   0.0   0.0   ----- 
Sat 04:30    W 17/ 24   1.0  0.1  ------    5.4   0.0   0.0   0.0   ----- 

MANGALORE AIRPORT

Site: 088109
Alt: 140.8m
16km NNE of SEYMOUR


  Time     Wind        Temp  DP   Baro     Rain since   Rain past  Vis(m), Cloud(base in m), Weather
  local        km/h                         9am  last   hr   10m    
Fri 23:00    C  0/  0   1.0  0.9  1008.0    3.2   0.0   0.0   0.0    4300 
Fri 23:30    C  0/  0   0.5  0.4  1008.1    3.2   0.0   0.0   0.0    7000 
Fri 23:39    C  0/  0   0.5  0.4  1008.1    3.2   0.0  ----   0.0    7000 
Sat 00:00   SW  7/  9   1.1  1.0  1008.0    3.2   0.0   0.0   0.0   10000 
Sat 00:30    C  0/  0   0.2  0.1  1008.2    3.2   0.0   0.0   0.0   10000 
Sat 01:00   SW  6/  9  -0.7 -0.8  1008.1    3.2   0.0   0.0   0.0   10000 
Sat 01:30   SW  7/  9   0.6  0.5  1008.4    3.2   0.0   0.0   0.0   10000 
Sat 02:00   SW  6/  7  -0.1 -0.2  1008.5    3.2   0.0   0.0   0.0   10000 
Sat 02:30   SW  7/ 11   1.4  1.3  1008.4    3.2   0.0   0.0   0.0   10000 
Sat 03:00    C  0/  0  -0.5 -0.6  1008.2    3.2   0.0   0.0   0.0   10000 
Sat 03:30    C  0/  0   0.8  0.7  1008.3    3.2   0.0   0.0   0.0   10000|BR 540 BR1650 
Sat 04:00   SW  2/  7   1.7  1.7  1008.4    3.2   0.0   0.0   0.0   10000|BR 540 BR 690 OC 990 
Sat 04:12    C  0/  0   1.9  1.9  1008.5    3.6   0.0   0.0   0.4    6000|SC 540 BR 690 OC 990 
Sat 04:30    C  0/  0   1.8  1.8  1008.6    4.0   0.0   0.0   0.0   10000|SC 540 SC 720 BR 870 
Sat 04:35    C  0/  0   2.1  2.1  1008.7    4.0   0.0   0.0   0.0   10000|SC 870 BR1050 OC1350 

PUCKAPUNYAL LYON HILL (DEFENCE)

Site: 088167
Alt: 193.0m
km of


  Time     Wind        Temp  DP   Baro     Rain since   Rain past  Vis(m), Cloud(base in m), Weather
  local        km/h                         9am  last   hr   10m    
Fri 23:00    W 13/ 15   3.5  2.5  ------    0.8   0.0   0.0   0.0   ----- 
Fri 23:30    W 15/ 17   3.8  2.5  ------    0.8   0.0   0.0   0.0   ----- 
Sat 00:00    W 15/ 17   3.4  1.9  ------    0.8   0.0   0.0   0.0   ----- 
Sat 00:30    W 17/ 20   3.5  1.9  ------    0.8   0.0   0.0   0.0   ----- 
Sat 01:00    W 13/ 17   3.2  1.9  ------    0.8   0.0   0.0   0.0   ----- 
Sat 01:30    W  9/ 13   3.0  2.0  ------    0.8   0.0   0.0   0.0   ----- 
Sat 02:00  WNW  9/ 11   2.5  1.2  ------    0.8   0.0   0.0   0.0   ----- 
Sat 02:30    W 17/ 20   3.6  2.0  ------    0.8   0.0   0.0   0.0   ----- 
Sat 03:00  WNW 11/ 15   3.0  1.7  ------    0.8   0.0   0.0   0.0   ----- 
Sat 03:30   NW  9/ 11   3.2  2.0  ------    0.8   0.0   0.0   0.0   ----- 
Sat 04:00  WNW  9/ 11   3.4  2.4  ------    1.2   0.4   0.4   0.2   ----- 
Sat 04:30   NW  9/ 11   3.4  2.7  ------    1.8   0.0   0.0   0.4   ----- 

PUCKAPUNYAL WEST (DEFENCE)

Site: 088166
Alt: 293.0m
km of


  Time     Wind        Temp  DP   Baro     Rain since   Rain past  Vis(m), Cloud(base in m), Weather
  local        km/h                         9am  last   hr   10m    
Fri 23:00    W  7/ 11   3.4  1.1  ------    0.4   0.0   0.0   0.0   ----- 
Fri 23:30    W 15/ 20   3.8  1.4  ------    0.4   0.0   0.0   0.0   ----- 
Sat 00:00    W 13/ 20   3.3  1.2  ------    0.4   0.0   0.0   0.0   ----- 
Sat 00:30    W 22/ 35   3.5  1.2  ------    0.4   0.0   0.0   0.0   ----- 
Sat 01:00    W 26/ 37   3.4  1.4  ------    0.4   0.0   0.0   0.0   ----- 
Sat 01:30    W 24/ 35   3.1  1.2  ------    0.4   0.0   0.0   0.0   ----- 
Sat 02:00    W 24/ 32   3.2  1.1  ------    0.4   0.0   0.0   0.0   ----- 
Sat 02:30    W 15/ 22   3.4  1.3  ------    0.4   0.0   0.0   0.0   ----- 
Sat 03:00    W 17/ 30   3.6  1.6  ------    0.4   0.0   0.0   0.0   ----- 
Sat 03:30    W 13/ 22   4.2  2.6  ------    0.4   0.0   0.0   0.0   ----- 
Sat 04:00    W 17/ 28   4.2  2.9  ------    1.0   0.6   0.6   0.6   ----- 
Sat 04:30    W 15/ 26   4.2  3.3  ------    1.8   0.0   0.0   0.0   ----- 

REDESDALE

Site: 088051
Alt: 290.0m
36km SE of BENDIGO


  Time     Wind        Temp  DP   Baro     Rain since   Rain past  Vis(m), Cloud(base in m), Weather
  local        km/h                         9am  last   hr   10m    
Fri 23:00    C  0/  0   1.3  0.3  ------    4.0   0.0   0.0   0.0   ----- 
Fri 23:30    S  4/  6   1.2  0.5  ------    4.0   0.0   0.0   0.0   ----- 
Sat 00:00   SW  4/  6   1.9  1.2  ------    4.0   0.0   0.0   0.0   ----- 
Sat 00:30    W  7/ 15   2.5  1.8  ------    4.0   0.0   0.0   0.0   ----- 
Sat 01:00  WSW  7/ 17   2.7  1.5  ------    4.0   0.0   0.0   0.0   ----- 
Sat 01:30  WSW  6/ 11   2.4  1.2  ------    4.0   0.0   0.0   0.0   ----- 
Sat 02:00    W  4/ 11   2.8  1.8  ------    4.0   0.0   0.0   0.0   ----- 
Sat 02:30    W  6/ 17   3.5  2.5  ------    4.0   0.0   0.0   0.0   ----- 
Sat 03:00    W  7/ 15   4.4  3.2  ------    4.0   0.0   0.0   0.0   ----- 
Sat 03:30    W 11/ 20   4.5  3.5  ------    4.0   0.0   0.0   0.0   ----- 
Sat 04:00  WSW 11/ 19   4.6  3.7  ------    4.0   0.0   0.0   0.0   ----- 
Sat 04:30  WSW 13/ 19   5.0  4.4  ------    4.0   0.0   0.0   0.0   ----- 

WALLAN (KILMORE GAP)

Site: 088162
Alt: 527.8m
43km SSW of SEYMOUR


  Time     Wind        Temp  DP   Baro     Rain since   Rain past  Vis(m), Cloud(base in m), Weather
  local        km/h                         9am  last   hr   10m    
Fri 23:00    W 26/ 33   2.8  0.9  1006.5    2.8   0.0   0.0   0.0   10000 
Fri 23:30    W 22/ 30   2.5  1.0  1006.2    2.8   0.0   0.0   0.0   10000 
Sat 00:00  WNW 13/ 17   2.1  0.6  1006.2    2.8   0.0   0.0   0.0   10000 
Sat 00:30  WNW 15/ 20   1.9  0.6  1006.2    2.8   0.0   0.0   0.0   10000 
Sat 01:00  WNW 17/ 20   1.7  0.5  1006.2    2.8   0.0   0.0   0.0   10000 
Sat 01:30  WNW 13/ 17   1.6  0.7  1006.3    2.8   0.0   0.0   0.0   10000 
Sat 02:00   NW 17/ 22   1.7  1.0  1006.3    2.8   0.0   0.0   0.0   10000 
Sat 02:30  WNW 15/ 19   2.5  1.6  1006.1    2.8   0.0   0.0   0.0   10000|SC 870 BR1110 BR1560 
Sat 02:57    W 19/ 24   3.3  2.3  1006.1    2.8   0.0  ----   0.0   10000|BR 390 OC 870 
Sat 03:00    W 19/ 28   3.3  2.4  1006.1    2.8   0.0   0.0   0.0   10000|BR 390 OC 870 
Sat 03:30    W 24/ 37   3.5  3.4  1006.2    3.4   0.6   0.6   0.0   10000|BR 270 OC 390 
Sat 03:53  WSW 28/ 50   3.7  3.6  1006.3    3.4   0.0  ----   0.0   10000|BR 180 OC 300 
Sat 04:00  WSW 30/ 50   3.7  3.6  1006.5    3.4   0.0   0.6   0.0   10000|OC 180 OC 300 
Sat 04:30  WSW 28/ 46   3.6  3.5  1006.8    3.8   0.0   0.0   0.2   10000|OC 180 OC 330